Time;durP1;ratioP1;P1;durP2;ratioP2;P2;SDS_P1;SDS_P2;PMS_P1;PMS_P2;Temp;Humidity;BMP_temperature;BMP_pressure;BME280_temperature;BME280_humidity;BME280_pressure;Samples;Min_cycle;Max_cycle;Signal;HPM_P1;HPM_P2
2022/01/17 00:00:40;;;;;;;0.60;0.10;;;-6.40;99.90;;;;;;2200620;64;20113;-36
2022/01/17 00:03:06;;;;;;;1.70;0.20;;;-6.50;99.90;;;;;;2201049;64;20086;-37
2022/01/17 00:05:33;;;;;;;0.50;0.20;;;-6.50;99.90;;;;;;2200829;64;20090;-37
2022/01/17 00:08:00;;;;;;;0.33;0.13;;;-6.50;99.90;;;;;;2200961;64;20117;-37
2022/01/17 00:10:27;;;;;;;0.20;0.20;;;-6.50;99.90;;;;;;2200803;64;20191;-39
2022/01/17 00:12:57;;;;;;;1.30;0.20;;;-6.50;99.90;;;;;;2200963;64;20133;-37
2022/01/17 00:15:30;;;;;;;1.07;0.30;;;-6.60;99.90;;;;;;2201041;64;20517;-37
2022/01/17 00:20:44;;;;;;;1.83;0.20;;;-6.70;99.90;;;;;;2200879;64;20172;-38
2022/01/17 00:23:14;;;;;;;0.87;0.20;;;-6.70;99.90;;;;;;2200878;64;20094;-37
2022/01/17 00:25:41;;;;;;;0.60;0.20;;;-6.70;99.90;;;;;;2202790;64;20120;-40
2022/01/17 00:28:08;;;;;;;2.67;0.20;;;-6.80;99.90;;;;;;2205008;64;20156;-37
2022/01/17 00:30:35;;;;;;;2.43;0.40;;;-6.80;99.90;;;;;;2208053;64;20101;-39
2022/01/17 00:33:04;;;;;;;0.77;0.20;;;-6.80;99.90;;;;;;2216060;64;20177;-40
2022/01/17 00:35:31;;;;;;;0.30;0.20;;;-6.90;99.90;;;;;;2216844;64;20470;-37
2022/01/17 00:37:58;;;;;;;2.33;0.20;;;-6.90;99.90;;;;;;2213579;64;20539;-38
2022/01/17 00:40:25;;;;;;;0.90;0.27;;;-7.00;99.90;;;;;;2213255;64;20591;-38
2022/01/17 00:42:52;;;;;;;0.83;0.30;;;-7.00;99.90;;;;;;2210293;64;20108;-36
2022/01/17 00:45:25;;;;;;;2.00;0.37;;;-7.00;99.90;;;;;;2213402;64;20579;-37
2022/01/17 00:47:51;;;;;;;0.30;0.20;;;-7.10;99.90;;;;;;2213256;64;20097;-38
2022/01/17 00:50:18;;;;;;;1.93;0.40;;;-7.30;99.90;;;;;;2213515;64;20097;-37
2022/01/17 00:52:48;;;;;;;0.57;0.23;;;-7.40;99.90;;;;;;2209516;64;20203;-37
2022/01/17 00:55:15;;;;;;;1.43;0.30;;;-7.50;99.90;;;;;;2212710;64;20461;-37
2022/01/17 00:57:44;;;;;;;1.43;0.33;;;-7.60;99.90;;;;;;2212834;64;20081;-37
2022/01/17 01:00:12;;;;;;;2.50;0.50;;;-7.70;99.90;;;;;;2209352;64;20547;-37
2022/01/17 01:02:39;;;;;;;0.90;0.33;;;-7.80;99.90;;;;;;2213461;64;20085;-36
2022/01/17 01:05:06;;;;;;;1.30;0.40;;;-7.90;99.90;;;;;;2213487;64;20081;-38
2022/01/17 01:07:33;;;;;;;0.80;0.30;;;-7.90;99.90;;;;;;2210189;64;20108;-37
2022/01/17 01:10:10;;;;;;;2.43;0.50;;;-7.90;99.90;;;;;;2213491;64;20596;-37
2022/01/17 01:12:38;;;;;;;0.73;0.33;;;-8.00;99.90;;;;;;2213381;64;20113;-39
2022/01/17 01:15:11;;;;;;;1.87;0.20;;;-8.10;99.90;;;;;;2210421;64;20166;-37
2022/01/17 01:17:52;;;;;;;0.63;0.20;;;-8.10;99.90;;;;;;2213509;64;20152;-36
2022/01/17 01:28:21;;;;;;;;;;;-8.40;99.90;;;;;;2217243;64;20181;-37
2022/01/17 01:30:51;;;;;;;0.63;0.23;;;-8.40;99.90;;;;;;2217136;64;19988;-37
2022/01/17 01:33:29;;;;;;;0.27;0.20;;;-8.50;99.90;;;;;;2217159;64;20104;-37
2022/01/17 01:36:14;;;;;;;0.60;0.30;;;-8.50;99.90;;;;;;2217103;64;20085;-39
2022/01/17 01:38:42;;;;;;;;;;;-8.50;99.90;;;;;;2217238;64;20175;-39
2022/01/17 01:41:10;;;;;;;0.40;0.20;;;-8.60;99.90;;;;;;2217287;64;19987;-38
2022/01/17 01:43:37;;;;;;;0.40;0.20;;;-8.70;99.90;;;;;;2220446;64;20118;-36
2022/01/17 01:46:05;;;;;;;1.43;0.60;;;-8.60;99.90;;;;;;2217106;64;20528;-38
2022/01/17 01:48:33;;;;;;;1.33;0.27;;;-8.60;99.90;;;;;;2217014;64;20116;-36
2022/01/17 01:51:00;;;;;;;1.00;0.63;;;-8.60;99.90;;;;;;2217147;64;20107;-36
2022/01/17 01:53:29;;;;;;;1.40;0.40;;;-8.70;99.90;;;;;;2216969;64;20499;-37
2022/01/17 01:55:57;;;;;;;0.40;0.10;;;-8.70;99.90;;;;;;2216881;64;20532;-37
2022/01/17 01:58:24;;;;;;;0.80;0.40;;;-8.60;99.90;;;;;;2216999;64;20127;-39
2022/01/17 02:00:51;;;;;;;0.63;0.27;;;-8.60;99.90;;;;;;2209890;64;20089;-37
2022/01/17 02:03:18;;;;;;;0.57;0.30;;;-8.70;99.90;;;;;;2217146;64;20081;-37
2022/01/17 02:05:45;;;;;;;2.50;0.70;;;-8.70;99.90;;;;;;2217094;64;20135;-38
2022/01/17 02:08:13;;;;;;;2.30;0.50;;;-8.70;99.90;;;;;;2217285;64;20081;-37
2022/01/17 02:10:40;;;;;;;3.37;0.50;;;-8.70;99.90;;;;;;2217115;64;20184;-41
2022/01/17 02:13:07;;;;;;;1.40;0.50;;;-8.70;99.90;;;;;;2217272;64;20084;-37
2022/01/17 02:15:36;;;;;;;2.77;0.43;;;-8.60;99.90;;;;;;2213828;64;20163;-38
2022/01/17 02:18:03;;;;;;;2.63;0.50;;;-8.70;99.90;;;;;;2216994;64;20088;-37
2022/01/17 02:20:43;;;;;;;2.37;0.60;;;-8.70;99.90;;;;;;2216958;64;20476;-38
2022/01/17 02:23:11;;;;;;;1.63;0.40;;;-8.60;99.90;;;;;;2216939;64;20155;-42
2022/01/17 02:25:38;;;;;;;1.93;0.43;;;-8.60;99.90;;;;;;2210177;64;20117;-37
2022/01/17 02:28:05;;;;;;;1.57;0.40;;;-8.70;99.90;;;;;;2205134;64;20078;-39
2022/01/17 02:30:32;;;;;;;1.43;0.50;;;-8.70;99.90;;;;;;2205009;64;20112;-37
2022/01/17 02:33:00;;;;;;;5.13;0.70;;;-8.70;99.90;;;;;;2205022;64;20557;-37
2022/01/17 02:35:27;;;;;;;1.10;0.30;;;-8.80;99.90;;;;;;2205187;64;20105;-37
2022/01/17 02:37:54;;;;;;;0.70;0.33;;;-8.70;99.90;;;;;;2201764;64;20101;-38
2022/01/17 02:40:21;;;;;;;1.13;0.40;;;-8.70;99.90;;;;;;2204962;64;20120;-37
2022/01/17 02:43:05;;;;;;;2.13;0.30;;;-8.70;99.90;;;;;;2204818;64;20093;-37
2022/01/17 02:45:37;;;;;;;4.20;0.30;;;-8.70;99.90;;;;;;2204970;64;20516;-37
2022/01/17 02:48:06;;;;;;;2.17;0.50;;;-8.80;99.90;;;;;;2208243;64;20093;-37
2022/01/17 02:50:33;;;;;;;0.80;0.27;;;-8.80;99.90;;;;;;2204701;64;20085;-38
2022/01/17 02:53:01;;;;;;;1.00;0.40;;;-8.70;99.90;;;;;;2205166;64;20553;-37
2022/01/17 02:55:29;;;;;;;1.37;0.43;;;-8.70;99.90;;;;;;2204791;64;20101;-39
2022/01/17 02:57:56;;;;;;;2.40;0.50;;;-8.60;99.90;;;;;;2204905;64;20096;-38
2022/01/17 03:00:22;;;;;;;0.70;0.30;;;-8.50;99.90;;;;;;2208033;64;20113;-38
2022/01/17 03:02:49;;;;;;;2.13;0.47;;;-8.50;99.90;;;;;;2207453;64;20547;-37
2022/01/17 03:05:17;;;;;;;1.67;0.40;;;-8.50;99.90;;;;;;2212964;64;20595;-38
2022/01/17 03:07:44;;;;;;;2.57;0.60;;;-8.40;99.90;;;;;;2209596;64;20183;-37
2022/01/17 03:10:56;;;;;;;1.93;0.63;;;-8.40;99.90;;;;;;2213189;64;20088;-40
2022/01/17 03:13:07;;;;;;;1.13;0.50;;;-8.40;99.90;;;;;;2208006;64;20085;-37
2022/01/17 03:15:34;;;;;;;1.40;0.70;;;-8.40;99.90;;;;;;2213101;64;20081;-37
2022/01/17 03:18:01;;;;;;;2.53;0.60;;;-8.40;99.90;;;;;;2212921;64;20089;-37
2022/01/17 03:20:28;;;;;;;1.07;0.50;;;-8.40;99.90;;;;;;2212621;64;20109;-38
2022/01/17 03:22:55;;;;;;;2.60;0.67;;;-8.40;99.90;;;;;;2204142;64;20098;-37
2022/01/17 03:25:22;;;;;;;3.17;0.40;;;-8.30;99.90;;;;;;2199163;64;20089;-37
2022/01/17 03:27:49;;;;;;;3.07;0.83;;;-8.40;99.90;;;;;;2204608;64;20108;-37
2022/01/17 03:30:16;;;;;;;4.70;0.40;;;-8.40;99.90;;;;;;2204903;64;20564;-38
2022/01/17 03:32:43;;;;;;;0.80;0.40;;;-8.40;99.90;;;;;;2208048;64;20439;-38
2022/01/17 03:35:10;;;;;;;2.93;0.47;;;-8.40;99.90;;;;;;2204828;64;20100;-41
2022/01/17 03:37:37;;;;;;;4.87;0.93;;;-8.50;99.90;;;;;;2204957;64;20108;-38
2022/01/17 03:40:04;;;;;;;1.90;0.80;;;-8.50;99.90;;;;;;2204620;64;20612;-39
2022/01/17 03:42:32;;;;;;;5.43;0.77;;;-8.50;99.90;;;;;;2204787;64;20497;-38
2022/01/17 03:45:00;;;;;;;1.53;0.50;;;-8.50;99.90;;;;;;2204637;64;20081;-43
2022/01/17 03:47:27;;;;;;;1.90;0.80;;;-8.50;99.90;;;;;;2207882;64;20094;-38
2022/01/17 03:49:54;;;;;;;1.30;0.20;;;-8.60;99.90;;;;;;2200723;64;20136;-37
2022/01/17 03:52:21;;;;;;;2.60;0.63;;;-8.60;99.90;;;;;;2200766;64;20105;-38
2022/01/17 03:54:48;;;;;;;4.07;1.00;;;-8.60;99.90;;;;;;2200896;64;20098;-38
2022/01/17 03:57:15;;;;;;;1.83;0.40;;;-8.60;99.90;;;;;;2201127;64;20082;-39
2022/01/17 03:59:41;;;;;;;1.77;0.70;;;-8.60;99.90;;;;;;2202018;64;20093;-38
2022/01/17 04:02:08;;;;;;;1.53;0.80;;;-8.60;99.90;;;;;;2208385;64;20113;-39
2022/01/17 04:04:35;;;;;;;0.97;0.50;;;-8.60;99.90;;;;;;2208470;64;20568;-40
2022/01/17 04:07:02;;;;;;;1.20;0.37;;;-8.70;99.90;;;;;;2208382;64;20568;-38
2022/01/17 04:09:29;;;;;;;4.80;1.17;;;-8.70;99.90;;;;;;2208407;64;20557;-38
2022/01/17 04:11:56;;;;;;;2.80;0.53;;;-8.70;99.90;;;;;;2208342;64;20081;-38
2022/01/17 04:14:23;;;;;;;2.33;0.63;;;-8.70;99.90;;;;;;2208546;64;20600;-37
2022/01/17 04:16:49;;;;;;;4.80;1.37;;;-8.70;99.90;;;;;;2208403;64;20093;-39
2022/01/17 04:19:18;;;;;;;1.73;0.60;;;-8.70;99.90;;;;;;2208492;64;20101;-37
2022/01/17 04:21:47;;;;;;;1.87;0.83;;;-8.70;99.90;;;;;;2211627;64;20104;-38
2022/01/17 04:24:14;;;;;;;3.23;1.00;;;-8.70;99.90;;;;;;2216467;64;20084;-38
2022/01/17 04:26:42;;;;;;;1.87;0.80;;;-8.60;99.90;;;;;;2212999;64;20086;-38
2022/01/17 04:29:10;;;;;;;3.03;1.03;;;-8.70;99.90;;;;;;2212786;64;20552;-38
2022/01/17 04:31:37;;;;;;;3.53;1.00;;;-8.70;99.90;;;;;;2212669;64;20085;-38
2022/01/17 04:34:04;;;;;;;4.17;0.77;;;-8.70;99.90;;;;;;2213135;64;20093;-42
2022/01/17 04:36:31;;;;;;;2.90;0.87;;;-8.70;99.90;;;;;;2213379;64;20104;-39
2022/01/17 04:38:58;;;;;;;4.80;0.70;;;-8.70;99.90;;;;;;2213370;64;20116;-39
2022/01/17 04:41:36;;;;;;;6.90;0.70;;;-8.70;99.90;;;;;;2213206;64;20092;-39
2022/01/17 04:45:07;;;;;;;2.53;0.50;;;-8.70;99.90;;;;;;2205213;64;20090;-39
2022/01/17 04:46:50;;;;;;;11.27;2.27;;;-8.70;99.90;;;;;;2205796;64;20089;-39
2022/01/17 04:49:17;;;;;;;10.73;5.70;;;-8.60;99.90;;;;;;2205428;64;20098;-38
2022/01/17 04:51:45;;;;;;;7.17;2.03;;;-8.50;99.90;;;;;;2208373;64;20082;-38
2022/01/17 04:54:36;;;;;;;1.80;0.73;;;-8.40;99.90;;;;;;2205102;64;20085;-37
2022/01/17 04:56:59;;;;;;;2.07;0.40;;;-8.40;99.90;;;;;;2205263;64;20089;-38
2022/01/17 04:59:26;;;;;;;1.87;0.60;;;-8.40;99.90;;;;;;2205219;64;20116;-37
2022/01/17 05:01:53;;;;;;;2.73;0.87;;;-8.40;99.90;;;;;;2205090;64;20161;-39
2022/01/17 05:04:20;;;;;;;5.77;1.67;;;-8.40;99.90;;;;;;2201881;64;20653;-39
2022/01/17 05:06:47;;;;;;;9.13;3.17;;;-8.40;99.90;;;;;;2208544;64;20148;-38
2022/01/17 05:09:14;;;;;;;17.17;5.50;;;-8.40;99.90;;;;;;2205225;64;20093;-37
2022/01/17 05:11:42;;;;;;;6.20;1.60;;;-8.40;99.90;;;;;;2205295;64;20097;-38
2022/01/17 05:14:09;;;;;;;11.07;4.27;;;-8.40;99.90;;;;;;2208379;64;20105;-37
2022/01/17 05:16:43;;;;;;;4.47;1.60;;;-8.40;99.90;;;;;;2205216;64;20256;-38
2022/01/17 05:21:55;;;;;;;;;;;-8.50;99.90;;;;;;2203547;64;20109;-38
2022/01/17 05:24:22;;;;;;;5.07;2.00;;;-8.50;99.90;;;;;;2205112;64;19973;-39
2022/01/17 05:26:49;;;;;;;6.67;3.30;;;-8.50;99.90;;;;;;2212000;64;20178;-40
2022/01/17 05:29:16;;;;;;;9.20;3.27;;;-8.60;99.90;;;;;;2212282;64;20569;-37
2022/01/17 05:31:43;;;;;;;2.47;1.23;;;-8.50;99.90;;;;;;2212029;64;20097;-39
2022/01/17 05:34:10;;;;;;;3.23;0.90;;;-8.50;99.90;;;;;;2212228;64;20122;-38
2022/01/17 05:36:37;;;;;;;15.40;4.17;;;-8.50;99.90;;;;;;2212091;64;20509;-38
2022/01/17 05:39:04;;;;;;;4.10;0.80;;;-8.50;99.90;;;;;;2212236;64;20077;-37
2022/01/17 05:41:30;;;;;;;4.57;0.80;;;-8.40;99.90;;;;;;2212303;64;20089;-39
2022/01/17 05:44:00;;;;;;;1.37;0.50;;;-8.30;99.90;;;;;;2205960;64;20213;-38
2022/01/17 05:46:27;;;;;;;1.30;0.60;;;-8.30;99.90;;;;;;2212306;64;20092;-38
2022/01/17 05:48:54;;;;;;;2.40;0.80;;;-8.10;99.90;;;;;;2212064;64;20089;-39
2022/01/17 05:51:21;;;;;;;1.40;1.00;;;-8.00;99.90;;;;;;2208889;64;20468;-39
2022/01/17 05:53:50;;;;;;;2.83;0.70;;;-7.80;99.90;;;;;;2212093;64;20124;-39
2022/01/17 05:56:17;;;;;;;1.80;0.50;;;-7.60;99.90;;;;;;2216988;64;20206;-39
2022/01/17 05:58:44;;;;;;;1.20;0.40;;;-7.40;99.90;;;;;;2213698;64;20655;-39
2022/01/17 06:01:13;;;;;;;0.83;0.40;;;-7.30;99.90;;;;;;2216942;64;20103;-38
2022/01/17 06:03:40;;;;;;;2.47;0.80;;;-7.20;99.90;;;;;;2213741;64;20107;-37
2022/01/17 06:06:07;;;;;;;2.03;0.70;;;-7.10;99.90;;;;;;2217050;64;20092;-37
2022/01/17 06:08:34;;;;;;;4.50;1.00;;;-7.10;99.90;;;;;;2216895;64;20081;-38
2022/01/17 06:11:00;;;;;;;1.70;0.50;;;-7.00;99.90;;;;;;2217084;64;20555;-38
2022/01/17 06:13:27;;;;;;;2.97;0.83;;;-7.10;99.90;;;;;;2217065;64;20104;-38
2022/01/17 06:15:54;;;;;;;2.13;0.67;;;-7.00;99.90;;;;;;2216957;64;20610;-38
2022/01/17 06:18:21;;;;;;;1.63;0.57;;;-7.00;99.90;;;;;;2216900;64;20084;-38
2022/01/17 06:20:48;;;;;;;2.00;0.63;;;-7.00;99.90;;;;;;2213777;64;20475;-37
2022/01/17 06:23:15;;;;;;;4.43;0.90;;;-7.10;99.90;;;;;;2213850;64;20085;-37
2022/01/17 06:25:45;;;;;;;1.20;0.50;;;-7.10;99.90;;;;;;2218232;64;20088;-39
2022/01/17 06:28:11;;;;;;;1.67;0.70;;;-7.00;99.90;;;;;;2217061;64;20500;-38
2022/01/17 06:30:38;;;;;;;5.80;0.70;;;-7.00;99.90;;;;;;2217028;64;20183;-37
2022/01/17 06:33:05;;;;;;;1.03;0.53;;;-7.00;99.90;;;;;;2211962;64;20084;-39
2022/01/17 06:35:32;;;;;;;1.33;0.57;;;-7.00;99.90;;;;;;2208539;64;20100;-38
2022/01/17 06:37:59;;;;;;;2.13;0.40;;;-7.00;99.90;;;;;;2208858;64;20100;-39
2022/01/17 06:40:26;;;;;;;2.77;0.50;;;-6.90;99.90;;;;;;2208817;64;20097;-38
2022/01/17 06:42:53;;;;;;;1.60;0.30;;;-6.90;99.90;;;;;;2208792;64;20252;-38
2022/01/17 06:45:20;;;;;;;1.53;0.50;;;-6.90;99.90;;;;;;2208948;64;20103;-37
2022/01/17 06:47:47;;;;;;;1.53;0.70;;;-7.00;99.90;;;;;;2208564;64;20089;-37
2022/01/17 06:50:14;;;;;;;3.30;0.57;;;-7.00;99.90;;;;;;2208670;64;20085;-39
2022/01/17 06:52:41;;;;;;;2.13;1.03;;;-7.00;99.90;;;;;;2208631;64;20215;-40
2022/01/17 06:55:09;;;;;;;0.90;0.40;;;-7.10;99.90;;;;;;2208752;64;20180;-40
2022/01/17 06:57:36;;;;;;;2.07;0.73;;;-7.10;99.90;;;;;;2208683;64;20092;-39
2022/01/17 07:00:07;;;;;;;2.07;0.60;;;-7.10;99.90;;;;;;2208689;64;20096;-41
2022/01/17 07:02:34;;;;;;;3.03;0.87;;;-7.10;99.90;;;;;;2208835;64;20158;-39
2022/01/17 07:05:01;;;;;;;3.73;0.57;;;-7.20;99.90;;;;;;2215162;64;20104;-38
2022/01/17 07:07:28;;;;;;;3.43;0.80;;;-7.30;99.90;;;;;;2213684;64;20081;-38
2022/01/17 07:09:55;;;;;;;0.53;0.30;;;-7.30;99.90;;;;;;2216736;64;20088;-41
2022/01/17 07:12:22;;;;;;;5.00;0.60;;;-7.30;99.90;;;;;;2216908;64;20100;-38
2022/01/17 07:14:48;;;;;;;1.10;0.47;;;-7.30;99.90;;;;;;2216714;64;20460;-38
2022/01/17 07:17:15;;;;;;;1.60;0.67;;;-7.20;99.90;;;;;;2216691;64;20097;-38
2022/01/17 07:19:42;;;;;;;1.40;0.50;;;-7.20;99.90;;;;;;2216472;64;20093;-38
2022/01/17 07:22:09;;;;;;;1.50;0.40;;;-7.10;99.90;;;;;;2216805;64;20110;-41
2022/01/17 07:24:37;;;;;;;1.23;0.50;;;-7.00;99.90;;;;;;2216783;64;20173;-38
2022/01/17 07:27:04;;;;;;;3.57;1.03;;;-7.00;99.90;;;;;;2216663;64;20556;-38
2022/01/17 07:29:30;;;;;;;1.00;0.50;;;-6.80;99.90;;;;;;2216616;64;20572;-38
2022/01/17 07:31:57;;;;;;;3.10;0.60;;;-6.80;99.90;;;;;;2213600;64;20107;-37
2022/01/17 07:34:24;;;;;;;1.03;0.50;;;-6.60;99.90;;;;;;2216678;64;20085;-39
2022/01/17 07:36:51;;;;;;;2.67;0.70;;;-6.60;99.90;;;;;;2216832;64;20231;-40
2022/01/17 07:39:18;;;;;;;1.07;0.40;;;-6.40;99.90;;;;;;2216661;64;20104;-39
2022/01/17 07:41:45;;;;;;;0.73;0.40;;;-6.30;99.90;;;;;;2216661;64;20084;-37
2022/01/17 07:44:19;;;;;;;1.30;0.50;;;-6.30;99.90;;;;;;2216733;64;20484;-38
2022/01/17 07:46:54;;;;;;;2.03;0.98;;;-6.30;99.90;;;;;;2216837;64;20144;-38
2022/01/17 07:49:22;;;;;;;2.67;0.70;;;-6.40;99.90;;;;;;2216718;64;20077;-39
2022/01/17 07:52:05;;;;;;;2.43;0.80;;;-6.40;99.90;;;;;;2216657;64;20096;-37
2022/01/17 07:54:33;;;;;;;2.27;0.50;;;-6.40;99.90;;;;;;2216387;64;20111;-41
2022/01/17 07:57:01;;;;;;;3.57;1.00;;;-6.40;99.90;;;;;;2216453;64;20096;-38
2022/01/17 07:59:28;;;;;;;2.50;0.70;;;-6.40;99.90;;;;;;2216712;64;20097;-38
2022/01/17 08:01:55;;;;;;;3.23;0.60;;;-6.30;99.90;;;;;;2216682;64;20077;-38
2022/01/17 08:04:22;;;;;;;0.90;0.40;;;-6.20;99.90;;;;;;2209985;64;20483;-40
2022/01/17 08:06:51;;;;;;;1.30;0.50;;;-6.10;99.90;;;;;;2216711;64;20126;-38
2022/01/17 08:09:20;;;;;;;1.83;0.60;;;-6.00;99.90;;;;;;2217400;64;20460;-38
2022/01/17 08:11:49;;;;;;;1.67;0.53;;;-6.20;99.90;;;;;;2217360;64;20080;-37
2022/01/17 08:14:16;;;;;;;1.17;0.50;;;-6.20;99.90;;;;;;2217147;64;20081;-38
2022/01/17 08:16:43;;;;;;;3.20;0.80;;;-6.10;99.90;;;;;;2217260;64;20089;-38
2022/01/17 08:19:10;;;;;;;2.67;0.87;;;-6.10;99.90;;;;;;2217231;64;20557;-37
2022/01/17 08:21:37;;;;;;;2.63;0.50;;;-6.00;99.90;;;;;;2208191;64;20120;-38
2022/01/17 08:24:04;;;;;;;2.40;0.53;;;-6.10;99.90;;;;;;2205352;64;20520;-37
2022/01/17 08:26:31;;;;;;;1.40;0.50;;;-5.80;99.90;;;;;;2205155;64;20561;-43
2022/01/17 08:28:58;;;;;;;2.30;0.50;;;-5.70;99.90;;;;;;2205368;64;20090;-38
2022/01/17 08:31:25;;;;;;;1.13;0.60;;;-5.60;99.90;;;;;;2205020;64;20184;-39
2022/01/17 08:33:52;;;;;;;3.17;0.70;;;-5.50;99.90;;;;;;2205320;64;20074;-38
2022/01/17 08:36:32;;;;;;;2.20;0.70;;;-5.30;99.90;;;;;;2208672;64;20120;-43
2022/01/17 08:38:59;;;;;;;1.23;0.63;;;-5.30;99.90;;;;;;2205407;64;20179;-39
2022/01/17 08:41:26;;;;;;;2.47;0.87;;;-5.20;99.90;;;;;;2208394;64;20554;-39
2022/01/17 08:43:52;;;;;;;1.43;0.73;;;-5.30;99.90;;;;;;2205143;64;20647;-39
2022/01/17 08:46:19;;;;;;;1.03;0.50;;;-5.20;99.90;;;;;;2205230;64;20097;-38
2022/01/17 08:48:46;;;;;;;1.00;0.50;;;-5.00;99.90;;;;;;2205063;64;20200;-38
2022/01/17 08:51:13;;;;;;;3.27;0.70;;;-5.00;99.90;;;;;;2205155;64;20082;-38
2022/01/17 08:53:40;;;;;;;1.13;0.40;;;-5.00;99.90;;;;;;2215344;64;20495;-39
2022/01/17 08:56:10;;;;;;;1.17;0.67;;;-5.10;99.90;;;;;;2219967;64;20096;-37
2022/01/17 08:58:37;;;;;;;1.50;0.53;;;-5.10;99.90;;;;;;2217071;64;20096;-37
2022/01/17 09:01:04;;;;;;;0.63;0.40;;;-5.10;99.90;;;;;;2216952;64;20069;-41
2022/01/17 09:03:30;;;;;;;0.90;0.50;;;-4.90;99.90;;;;;;2217252;64;20088;-37
2022/01/17 09:05:58;;;;;;;1.13;0.40;;;-4.90;99.90;;;;;;2216814;64;20081;-40
2022/01/17 09:08:24;;;;;;;1.97;0.80;;;-4.90;99.90;;;;;;2217229;64;20097;-37
2022/01/17 09:10:54;;;;;;;0.93;0.40;;;-5.00;99.90;;;;;;2216977;64;20575;-38
2022/01/17 09:13:23;;;;;;;1.23;0.40;;;-5.10;99.90;;;;;;2217106;64;20081;-37
2022/01/17 09:15:51;;;;;;;3.37;0.60;;;-5.10;99.90;;;;;;2217040;64;20096;-37
2022/01/17 09:18:19;;;;;;;0.93;0.60;;;-5.10;99.90;;;;;;2217079;64;20080;-37
2022/01/17 09:20:46;;;;;;;1.67;0.53;;;-5.20;99.90;;;;;;2216995;64;20119;-39
2022/01/17 09:23:13;;;;;;;1.43;0.70;;;-5.10;99.90;;;;;;2217074;64;20084;-39
2022/01/17 09:25:40;;;;;;;1.10;0.60;;;-5.20;99.90;;;;;;2213090;64;20093;-39
2022/01/17 09:28:07;;;;;;;4.30;1.00;;;-5.20;99.90;;;;;;2213243;64;20077;-37
2022/01/17 09:30:34;;;;;;;2.30;0.50;;;-5.20;99.90;;;;;;2216629;64;20093;-38
2022/01/17 09:33:03;;;;;;;1.97;0.50;;;-5.20;99.90;;;;;;2216502;64;20607;-38
2022/01/17 09:35:31;;;;;;;0.90;0.53;;;-5.10;99.90;;;;;;2216514;64;20144;-38
2022/01/17 09:37:58;;;;;;;3.03;0.50;;;-5.10;99.90;;;;;;2216255;64;20524;-39
2022/01/17 09:40:25;;;;;;;1.50;0.93;;;-5.10;99.90;;;;;;2216442;64;20434;-38
2022/01/17 09:42:53;;;;;;;1.40;0.70;;;-5.20;99.90;;;;;;2213341;64;20112;-38
2022/01/17 09:45:21;;;;;;;1.97;0.70;;;-5.10;99.90;;;;;;2216291;64;20453;-38
2022/01/17 09:47:48;;;;;;;2.33;0.50;;;-5.20;99.90;;;;;;2213065;64;20646;-39
2022/01/17 09:50:20;;;;;;;1.43;0.60;;;-5.30;99.90;;;;;;2216287;64;20132;-39
2022/01/17 09:52:51;;;;;;;2.57;0.70;;;-5.20;99.90;;;;;;2216182;64;20598;-39
2022/01/17 09:55:21;;;;;;;4.27;0.87;;;-5.30;99.90;;;;;;2213200;64;20101;-38
2022/01/17 09:57:53;;;;;;;2.10;0.47;;;-5.20;99.90;;;;;;2216100;64;20101;-38
2022/01/17 10:00:25;;;;;;;1.23;0.80;;;-5.30;99.90;;;;;;2216252;64;20112;-38
2022/01/17 10:02:55;;;;;;;4.00;1.00;;;-5.20;99.90;;;;;;2216080;64;20425;-40
2022/01/17 10:05:22;;;;;;;1.63;0.63;;;-5.20;99.90;;;;;;2213170;64;20148;-38
2022/01/17 10:08:01;;;;;;;1.20;0.60;;;-5.20;99.90;;;;;;2216192;64;20089;-38
2022/01/17 10:10:35;;;;;;;1.40;0.50;;;-5.30;99.90;;;;;;2212818;64;20206;-39
2022/01/17 10:13:29;;;;;;;3.00;0.93;;;-5.40;99.90;;;;;;2213337;64;20164;-40
2022/01/17 10:16:20;;;;;;;2.17;1.07;;;-5.50;99.90;;;;;;2212397;64;20311;-38
2022/01/17 10:19:01;;;;;;;1.20;0.80;;;-5.60;99.90;;;;;;2212875;64;20100;-39
2022/01/17 10:21:41;;;;;;;2.33;1.10;;;-5.60;99.90;;;;;;2216305;64;20088;-38
2022/01/17 10:27:08;;;;;;;2.13;1.00;;;-5.60;99.90;;;;;;2213119;64;20166;-39
2022/01/17 10:37:20;;;;;;;4.23;1.97;;;-5.50;99.90;;;;;;2212861;64;20150;-38
2022/01/17 10:39:53;;;;;;;1.53;0.50;;;-5.60;99.90;;;;;;2209879;64;20520;-37
2022/01/17 10:42:29;;;;;;;3.37;1.07;;;-5.70;99.90;;;;;;2212949;64;20174;-38
2022/01/17 10:45:29;;;;;;;3.00;1.17;;;-5.70;99.90;;;;;;2213009;64;20166;-38
2022/01/17 10:47:57;;;;;;;3.40;0.97;;;-5.80;99.90;;;;;;2212469;64;20101;-38
2022/01/17 10:50:28;;;;;;;2.70;1.13;;;-5.90;99.90;;;;;;2205917;64;20104;-38
2022/01/17 10:52:56;;;;;;;3.67;1.10;;;-5.90;99.90;;;;;;2212705;64;20538;-38
2022/01/17 10:55:25;;;;;;;3.60;1.27;;;-6.00;99.90;;;;;;2213080;64;20077;-38
2022/01/17 10:57:57;;;;;;;2.50;1.03;;;-6.00;99.90;;;;;;2209752;64;20099;-39
2022/01/17 11:00:28;;;;;;;1.33;0.90;;;-6.00;99.90;;;;;;2212931;64;20560;-39
2022/01/17 11:03:00;;;;;;;2.27;0.83;;;-6.00;99.90;;;;;;2212972;64;20159;-40
2022/01/17 11:05:28;;;;;;;1.90;0.87;;;-6.00;99.90;;;;;;2209963;64;20081;-39
2022/01/17 11:07:58;;;;;;;1.80;1.00;;;-6.00;99.90;;;;;;2212895;64;20136;-39
2022/01/17 11:10:30;;;;;;;2.90;1.17;;;-6.00;99.90;;;;;;2212834;64;20108;-40
2022/01/17 11:13:00;;;;;;;2.43;1.03;;;-6.00;99.90;;;;;;2213099;64;20112;-38
2022/01/17 11:15:27;;;;;;;4.77;1.10;;;-6.10;99.90;;;;;;2212931;64;20147;-39
2022/01/17 11:17:57;;;;;;;2.40;0.93;;;-6.10;99.90;;;;;;2213016;64;20111;-40
2022/01/17 11:20:27;;;;;;;4.53;1.77;;;-6.10;99.90;;;;;;2212728;64;20097;-39
2022/01/17 11:22:58;;;;;;;4.20;1.40;;;-6.10;99.90;;;;;;2212911;64;20089;-39
2022/01/17 11:25:28;;;;;;;2.27;1.20;;;-6.10;99.90;;;;;;2213642;64;20564;-39
2022/01/17 11:27:58;;;;;;;3.20;1.30;;;-6.20;99.90;;;;;;2215917;64;20113;-38
2022/01/17 11:30:25;;;;;;;3.10;0.87;;;-6.30;99.90;;;;;;2216093;64;20166;-39
2022/01/17 11:32:54;;;;;;;2.70;1.50;;;-6.20;99.90;;;;;;2215965;64;20097;-39
2022/01/17 11:35:22;;;;;;;5.47;1.20;;;-6.30;99.90;;;;;;2209713;64;20089;-39
2022/01/17 11:37:52;;;;;;;3.47;1.30;;;-6.30;99.90;;;;;;2215914;64;20089;-39
2022/01/17 11:40:31;;;;;;;8.23;1.43;;;-6.30;99.90;;;;;;2209599;64;20158;-41
2022/01/17 11:42:59;;;;;;;4.87;1.50;;;-6.30;99.90;;;;;;2208303;64;20096;-41
2022/01/17 11:45:29;;;;;;;6.03;1.37;;;-6.30;99.90;;;;;;2208578;64;20108;-40
2022/01/17 11:48:06;;;;;;;3.20;1.23;;;-6.30;99.90;;;;;;2214881;64;20081;-38
2022/01/17 11:50:36;;;;;;;10.40;2.63;;;-6.30;99.90;;;;;;2208530;64;20101;-39
2022/01/17 11:53:11;;;;;;;3.47;1.10;;;-6.30;99.90;;;;;;2211604;64;20112;-38
2022/01/17 11:55:44;;;;;;;8.17;1.57;;;-6.30;99.90;;;;;;2214935;64;20713;-39
2022/01/17 11:58:19;;;;;;;4.37;1.53;;;-6.30;99.90;;;;;;2208699;64;20576;-39
2022/01/17 12:00:46;;;;;;;5.43;2.47;;;-6.20;99.90;;;;;;2214875;64;20505;-38
2022/01/17 12:03:20;;;;;;;5.57;2.23;;;-6.20;99.90;;;;;;2208615;64;20077;-46
2022/01/17 12:05:47;;;;;;;6.50;1.60;;;-6.20;99.90;;;;;;2208541;64;20099;-38
2022/01/17 12:08:16;;;;;;;8.73;1.77;;;-6.20;99.90;;;;;;2215015;64;20092;-41
2022/01/17 12:10:57;;;;;;;2.93;1.13;;;-6.20;99.90;;;;;;2208461;64;20592;-39
2022/01/17 12:13:33;;;;;;;6.10;2.03;;;-6.20;99.90;;;;;;2208728;64;20100;-39
2022/01/17 12:16:10;;;;;;;2.50;0.87;;;-6.30;99.90;;;;;;2215554;64;20148;-39
2022/01/17 12:18:50;;;;;;;4.53;2.00;;;-6.30;99.90;;;;;;2215510;64;20096;-39
2022/01/17 12:21:21;;;;;;;4.73;1.17;;;-6.40;99.90;;;;;;2215510;64;20089;-38
2022/01/17 12:23:48;;;;;;;4.07;1.67;;;-6.50;99.90;;;;;;2215696;64;20090;-39
2022/01/17 12:26:30;;;;;;;4.10;1.53;;;-6.60;99.90;;;;;;2218682;64;20089;-46
2022/01/17 12:28:58;;;;;;;5.90;2.57;;;-6.60;99.90;;;;;;2216618;64;20579;-41
2022/01/17 12:31:43;;;;;;;6.80;2.20;;;-6.70;99.90;;;;;;2213421;64;20100;-42
2022/01/17 12:34:40;;;;;;;6.38;2.50;;;-6.90;99.90;;;;;;2216525;64;20097;-38
2022/01/17 12:37:33;;;;;;;5.67;2.30;;;-6.90;99.90;;;;;;2203929;64;20148;-39
2022/01/17 12:40:18;;;;;;;6.50;2.67;;;-7.00;99.90;;;;;;2204075;64;20140;-40
2022/01/17 12:42:55;;;;;;;;;;;-7.00;99.90;;;;;;2204186;64;20082;-40
2022/01/17 12:45:35;;;;;;;4.83;2.43;;;-7.10;99.90;;;;;;2203964;64;20125;-38
2022/01/17 12:48:05;;;;;;;7.80;2.90;;;-7.20;99.90;;;;;;2204192;64;20101;-40
2022/01/17 12:50:33;;;;;;;8.30;3.53;;;-7.30;99.90;;;;;;2203966;64;20094;-39
2022/01/17 12:53:01;;;;;;;10.73;3.70;;;-7.30;99.90;;;;;;2200655;64;20090;-39
2022/01/17 12:55:33;;;;;;;12.00;4.47;;;-7.40;99.90;;;;;;2204422;64;20108;-42
2022/01/17 12:58:00;;;;;;;10.80;3.90;;;-7.50;99.90;;;;;;2204802;64;20596;-39
2022/01/17 13:00:27;;;;;;;12.77;4.37;;;-7.60;99.90;;;;;;2201179;64;20102;-38
2022/01/17 13:02:54;;;;;;;15.87;7.87;;;-7.60;99.90;;;;;;2204744;64;20108;-41
2022/01/17 13:05:26;;;;;;;17.10;6.97;;;-7.70;99.90;;;;;;2200512;65;20102;-40
2022/01/17 13:07:53;;;;;;;17.87;6.90;;;-7.80;99.90;;;;;;2203817;65;20188;-40
2022/01/17 13:10:20;;;;;;;11.50;4.90;;;-7.80;99.90;;;;;;2203956;65;20094;-39
2022/01/17 13:12:51;;;;;;;18.13;8.00;;;-7.90;99.90;;;;;;2206357;64;20564;-45
2022/01/17 13:15:18;;;;;;;26.80;9.40;;;-7.90;99.90;;;;;;2212764;64;20502;-42
2022/01/17 13:17:48;;;;;;;28.03;12.23;;;-8.00;99.90;;;;;;2212906;64;20090;-41
2022/01/17 13:20:15;;;;;;;20.30;8.70;;;-8.10;99.90;;;;;;2212878;64;20189;-40
2022/01/17 13:22:53;;;;;;;19.67;9.30;;;-8.20;99.90;;;;;;2212704;64;20645;-40